createdAt,value
2023-03-31T00:01:11.281Z,7.80
2023-03-31T00:03:44.884Z,7.70
2023-03-31T00:06:18.923Z,7.70
2023-03-31T00:08:52.516Z,7.60
2023-03-31T00:11:22.618Z,7.50
2023-03-31T00:13:51.089Z,7.50
2023-03-31T00:16:19.507Z,7.40
2023-03-31T00:18:50.868Z,7.40
2023-03-31T00:21:26.008Z,7.30
2023-03-31T00:23:56.549Z,7.30
2023-03-31T00:26:26.340Z,7.30
2023-03-31T00:28:55.461Z,7.30
2023-03-31T00:31:24.883Z,7.30
2023-03-31T00:33:53.312Z,7.30
2023-03-31T00:36:27.562Z,7.30
2023-03-31T00:38:56.811Z,7.30
2023-03-31T00:41:25.197Z,7.30
2023-03-31T00:44:13.324Z,7.30
2023-03-31T00:46:52.569Z,7.40
2023-03-31T00:49:27.262Z,7.40
2023-03-31T00:52:02.389Z,7.40
2023-03-31T00:54:34.087Z,7.40
2023-03-31T00:57:03.782Z,7.40
2023-03-31T00:59:36.038Z,7.40
2023-03-31T01:02:05.093Z,7.40
2023-03-31T01:04:40.690Z,7.40
2023-03-31T01:07:17.203Z,7.30
2023-03-31T01:09:48.340Z,7.30
2023-03-31T01:12:19.350Z,7.30
2023-03-31T01:14:48.109Z,7.30
2023-03-31T01:17:19.258Z,7.20
2023-03-31T01:20:06.612Z,7.20
2023-03-31T01:23:16.306Z,7.20
2023-03-31T01:26:18.460Z,7.10
2023-03-31T01:28:53.386Z,7.10
2023-03-31T01:31:52.192Z,7.10
2023-03-31T01:34:59.090Z,7.10
2023-03-31T01:38:09.614Z,7.00
2023-03-31T01:41:07.859Z,7.00
2023-03-31T01:43:42.669Z,6.90
2023-03-31T01:46:20.783Z,6.90
2023-03-31T01:49:00.693Z,6.90
2023-03-31T01:51:35.459Z,6.90
2023-03-31T01:54:14.216Z,6.90
2023-03-31T01:56:48.771Z,6.90
2023-03-31T01:59:21.122Z,6.90
2023-03-31T02:01:55.518Z,6.90
2023-03-31T02:04:27.906Z,6.90
2023-03-31T02:07:00.859Z,6.90
2023-03-31T02:09:32.913Z,6.90
2023-03-31T02:12:08.196Z,6.90
2023-03-31T02:14:38.800Z,6.90
2023-03-31T02:17:14.263Z,6.80
2023-03-31T02:19:45.445Z,6.80
2023-03-31T02:22:15.401Z,6.80
2023-03-31T02:24:45.675Z,6.80
2023-03-31T02:27:20.180Z,6.80
2023-03-31T02:29:49.334Z,6.80
2023-03-31T02:32:23.304Z,6.80
2023-03-31T02:34:55.445Z,6.80
2023-03-31T02:37:24.370Z,6.90
2023-03-31T02:39:55.872Z,6.90
2023-03-31T02:42:26.392Z,6.90
2023-03-31T02:44:55.034Z,6.90
2023-03-31T02:47:24.109Z,6.90
2023-03-31T02:49:57.200Z,6.90
2023-03-31T02:52:41.483Z,6.90
2023-03-31T02:55:30.779Z,6.90
2023-03-31T02:58:23.915Z,6.80
2023-03-31T03:01:04.979Z,6.80
2023-03-31T03:03:44.012Z,6.70
2023-03-31T03:06:27.884Z,6.70
2023-03-31T03:09:17.191Z,6.60
2023-03-31T03:11:50.009Z,6.50
2023-03-31T03:14:29.386Z,6.50
2023-03-31T03:17:03.484Z,6.40
2023-03-31T03:19:31.968Z,6.40
2023-03-31T03:22:00.356Z,6.30
2023-03-31T03:24:30.020Z,6.30
2023-03-31T03:26:58.634Z,6.20
2023-03-31T03:29:28.883Z,6.20
2023-03-31T03:31:57.370Z,6.10
2023-03-31T03:34:27.359Z,6.10
2023-03-31T03:36:55.756Z,6.00
2023-03-31T03:39:24.168Z,6.00
2023-03-31T03:41:52.519Z,5.90
2023-03-31T03:44:20.924Z,5.90
2023-03-31T03:46:50.679Z,5.80
2023-03-31T03:49:19.243Z,5.80
2023-03-31T03:51:47.720Z,5.80
2023-03-31T03:54:16.154Z,5.80
2023-03-31T03:56:44.616Z,5.70
2023-03-31T03:59:13.751Z,5.70
2023-03-31T04:01:42.186Z,5.70
2023-03-31T04:04:12.035Z,5.70
2023-03-31T04:06:40.603Z,5.70
2023-03-31T04:09:09.228Z,5.70
2023-03-31T04:11:37.738Z,5.70
2023-03-31T04:14:06.165Z,5.60
2023-03-31T04:16:34.950Z,5.60
2023-03-31T04:19:05.160Z,5.60
2023-03-31T04:21:35.846Z,5.60
2023-03-31T04:24:04.956Z,5.60
2023-03-31T04:26:43.325Z,5.60
2023-03-31T04:29:13.910Z,5.50
2023-03-31T04:31:44.213Z,5.50
2023-03-31T04:34:14.295Z,5.50
2023-03-31T04:36:47.586Z,5.50
2023-03-31T04:39:17.339Z,5.40
2023-03-31T04:41:46.324Z,5.40
2023-03-31T04:44:14.831Z,5.40
2023-03-31T04:46:43.193Z,5.40
2023-03-31T04:49:11.734Z,5.40
2023-03-31T04:51:40.083Z,5.40
2023-03-31T04:54:09.832Z,5.40
2023-03-31T04:56:38.302Z,5.40
2023-03-31T04:59:08.524Z,5.40
2023-03-31T05:01:37.303Z,5.50
2023-03-31T05:04:06.780Z,5.60
2023-03-31T05:06:35.405Z,5.60
2023-03-31T05:09:03.744Z,5.60
2023-03-31T05:11:33.510Z,5.70
2023-03-31T05:14:01.952Z,5.70
2023-03-31T05:16:30.678Z,5.80
2023-03-31T05:18:59.274Z,6.00
2023-03-31T05:21:30.560Z,6.30
2023-03-31T05:23:59.082Z,6.70
2023-03-31T05:26:27.996Z,7.20
2023-03-31T05:28:57.859Z,7.70
2023-03-31T05:31:26.437Z,8.20
2023-03-31T05:33:54.814Z,8.80
2023-03-31T05:36:23.829Z,9.50
2023-03-31T05:38:52.538Z,10.20
2023-03-31T05:41:21.314Z,11.00
2023-03-31T05:43:50.355Z,11.70
2023-03-31T05:46:20.215Z,12.30
2023-03-31T05:48:48.757Z,12.80
2023-03-31T05:51:17.282Z,13.40
2023-03-31T05:53:46.070Z,13.90
2023-03-31T05:56:14.540Z,14.50
2023-03-31T05:58:42.936Z,15.00
2023-03-31T06:01:15.258Z,15.60
2023-03-31T06:03:47.794Z,16.10
2023-03-31T06:06:18.296Z,16.40
2023-03-31T06:08:48.033Z,16.60
2023-03-31T06:11:19.555Z,16.50
2023-03-31T06:13:48.092Z,16.40
2023-03-31T06:16:18.444Z,16.20
2023-03-31T06:18:48.380Z,16.20
2023-03-31T06:21:18.631Z,16.00
2023-03-31T06:23:47.282Z,15.90
2023-03-31T06:26:17.514Z,15.80
2023-03-31T06:28:46.668Z,15.70
2023-03-31T06:31:16.852Z,15.60
2023-03-31T06:33:47.137Z,15.40
2023-03-31T06:36:17.775Z,15.30
2023-03-31T06:38:47.522Z,15.20
2023-03-31T06:41:17.536Z,15.20
2023-03-31T06:43:46.622Z,15.30
2023-03-31T06:46:15.996Z,15.50
2023-03-31T06:48:44.492Z,15.70
2023-03-31T06:51:14.793Z,16.00
2023-03-31T06:53:43.260Z,16.50
2023-03-31T06:56:11.836Z,17.00
2023-03-31T06:58:40.297Z,17.80
2023-03-31T07:01:09.181Z,18.50
2023-03-31T07:03:37.988Z,18.80
2023-03-31T07:06:06.742Z,18.90
2023-03-31T07:08:36.532Z,18.90
2023-03-31T07:11:05.756Z,18.80
2023-03-31T07:13:34.716Z,18.50
2023-03-31T07:16:05.496Z,18.30
2023-03-31T07:18:35.510Z,18.10
2023-03-31T07:21:08.162Z,17.80
2023-03-31T07:23:39.778Z,17.70
2023-03-31T07:26:08.779Z,17.60
2023-03-31T07:28:37.195Z,17.50
2023-03-31T07:31:12.928Z,17.40
2023-03-31T07:33:41.541Z,17.40
2023-03-31T07:36:13.357Z,17.30
2023-03-31T07:38:45.832Z,17.30
2023-03-31T07:41:15.786Z,17.20
2023-03-31T07:43:44.611Z,17.20
2023-03-31T07:46:18.243Z,17.30
2023-03-31T07:48:47.770Z,17.40
2023-03-31T07:51:17.710Z,17.50
2023-03-31T07:53:49.439Z,17.40
2023-03-31T07:56:18.329Z,17.30
2023-03-31T07:58:48.740Z,17.10
2023-03-31T08:01:18.972Z,16.90
2023-03-31T08:03:48.909Z,16.60
2023-03-31T08:06:19.965Z,16.40
2023-03-31T08:08:50.245Z,16.10
2023-03-31T08:11:19.787Z,15.90
2023-03-31T08:13:48.527Z,15.60
2023-03-31T08:16:17.570Z,15.50
2023-03-31T08:18:46.349Z,15.50
2023-03-31T08:21:14.788Z,15.60
2023-03-31T08:23:43.230Z,15.90
2023-03-31T08:26:17.889Z,16.50
2023-03-31T08:28:48.723Z,17.10
2023-03-31T08:31:18.703Z,17.70
2023-03-31T08:33:48.282Z,18.20
2023-03-31T08:36:16.734Z,18.70
2023-03-31T08:38:48.197Z,19.10
2023-03-31T08:41:34.018Z,19.60
2023-03-31T08:44:06.321Z,20.10
2023-03-31T08:46:36.766Z,20.60
2023-03-31T08:49:06.702Z,21.10
2023-03-31T08:51:41.100Z,21.80
2023-03-31T08:54:16.356Z,22.60
2023-03-31T08:56:50.731Z,23.20
2023-03-31T08:59:27.762Z,23.60
2023-03-31T09:02:03.544Z,23.80
2023-03-31T09:05:07.264Z,23.90
2023-03-31T09:07:46.312Z,23.90
2023-03-31T09:10:30.426Z,23.70
2023-03-31T09:13:05.775Z,23.70
2023-03-31T09:15:41.689Z,23.60
2023-03-31T09:18:19.107Z,23.50
2023-03-31T09:20:51.539Z,23.20
2023-03-31T09:23:28.783Z,23.00
2023-03-31T09:25:59.184Z,22.70
2023-03-31T09:28:35.042Z,22.40
2023-03-31T09:31:08.580Z,22.10
2023-03-31T09:33:41.001Z,21.70
2023-03-31T09:36:16.508Z,21.40
2023-03-31T09:38:46.525Z,21.10
2023-03-31T09:41:17.299Z,20.90
2023-03-31T09:43:49.860Z,20.70
2023-03-31T09:46:22.922Z,20.60
2023-03-31T09:49:00.470Z,20.50
2023-03-31T09:51:33.327Z,20.40
2023-03-31T09:54:08.900Z,20.40
2023-03-31T09:56:48.901Z,20.30
2023-03-31T09:59:21.740Z,20.20
2023-03-31T10:01:54.075Z,20.10
2023-03-31T10:04:25.129Z,20.00
2023-03-31T10:06:54.808Z,20.00
2023-03-31T10:09:27.550Z,20.10
2023-03-31T10:12:01.022Z,20.30
2023-03-31T10:14:39.381Z,20.60
2023-03-31T10:17:08.422Z,21.10
2023-03-31T10:19:38.957Z,21.50
2023-03-31T10:22:16.252Z,21.90
2023-03-31T10:24:46.277Z,22.30
2023-03-31T10:27:22.960Z,22.60
2023-03-31T10:29:56.111Z,23.00
2023-03-31T10:32:29.212Z,23.30
2023-03-31T10:34:59.301Z,23.50
2023-03-31T10:37:30.103Z,23.60
2023-03-31T10:39:59.631Z,23.70
2023-03-31T10:42:29.978Z,23.70
2023-03-31T10:45:36.646Z,23.60
2023-03-31T10:48:08.164Z,23.50
2023-03-31T10:50:38.148Z,23.10
2023-03-31T10:53:08.142Z,22.80
2023-03-31T10:55:41.136Z,22.50
2023-03-31T10:58:26.705Z,22.20
2023-03-31T11:01:09.321Z,22.10
2023-03-31T11:03:58.054Z,21.80
2023-03-31T11:06:31.869Z,21.70
2023-03-31T11:09:15.760Z,21.50
2023-03-31T11:12:02.062Z,21.30
2023-03-31T11:14:41.751Z,21.20
2023-03-31T11:17:25.731Z,21.10
2023-03-31T11:20:05.783Z,21.00
2023-03-31T11:22:42.494Z,20.90
2023-03-31T11:25:23.338Z,20.80
2023-03-31T11:28:04.496Z,20.70
2023-03-31T11:30:38.780Z,20.70
2023-03-31T11:33:27.409Z,20.60
2023-03-31T11:36:06.942Z,20.50
2023-03-31T11:38:47.644Z,20.50
2023-03-31T11:41:20.473Z,20.70
2023-03-31T11:43:51.641Z,20.90
2023-03-31T11:46:23.571Z,21.00
2023-03-31T11:48:59.886Z,21.20
2023-03-31T11:51:31.617Z,21.20
2023-03-31T11:54:02.469Z,21.30
2023-03-31T11:56:36.496Z,21.20
2023-03-31T11:59:07.588Z,21.30
2023-03-31T12:01:45.458Z,21.20
2023-03-31T12:04:25.962Z,21.10
2023-03-31T12:07:02.602Z,21.20
2023-03-31T12:09:39.220Z,21.40
2023-03-31T12:12:14.208Z,21.60
2023-03-31T12:14:49.709Z,21.90
2023-03-31T12:17:21.092Z,22.30
2023-03-31T12:19:55.563Z,22.80
2023-03-31T12:22:27.791Z,23.20
2023-03-31T12:24:56.544Z,23.50
2023-03-31T12:27:29.329Z,23.50
2023-03-31T12:30:02.313Z,23.40
2023-03-31T12:32:36.529Z,23.30
2023-03-31T12:35:13.279Z,23.10
2023-03-31T12:38:16.547Z,23.00
2023-03-31T12:40:54.071Z,22.90
2023-03-31T12:43:33.576Z,22.70
2023-03-31T12:46:19.093Z,22.60
2023-03-31T12:49:00.681Z,22.50
2023-03-31T12:51:46.809Z,22.50
2023-03-31T12:54:28.031Z,22.80
2023-03-31T12:57:16.973Z,23.10
2023-03-31T12:59:47.129Z,23.70
2023-03-31T13:02:27.873Z,24.00
2023-03-31T13:04:56.595Z,24.30
2023-03-31T13:07:42.573Z,24.20
2023-03-31T13:10:31.565Z,24.40
2023-03-31T13:13:06.934Z,24.70
2023-03-31T13:15:35.322Z,25.20
2023-03-31T13:18:06.058Z,25.70
2023-03-31T13:20:37.891Z,26.20
2023-03-31T13:23:17.582Z,26.50
2023-03-31T13:25:49.379Z,26.60
2023-03-31T13:28:42.457Z,26.60
2023-03-31T13:31:12.462Z,26.40
2023-03-31T13:33:48.228Z,26.00
2023-03-31T13:36:36.821Z,25.70
2023-03-31T13:39:28.193Z,25.10
2023-03-31T13:42:14.665Z,24.70
2023-03-31T13:45:04.618Z,24.00
2023-03-31T13:48:15.705Z,23.30
2023-03-31T13:50:58.909Z,22.50
2023-03-31T13:53:42.123Z,21.90
2023-03-31T13:57:00.800Z,21.40
2023-03-31T14:00:12.736Z,21.00
2023-03-31T14:03:07.575Z,20.60
2023-03-31T14:05:38.896Z,20.10
2023-03-31T14:08:12.926Z,19.80
2023-03-31T14:10:43.149Z,19.60
2023-03-31T14:13:18.273Z,19.30
2023-03-31T14:15:50.793Z,19.10
2023-03-31T14:18:26.245Z,18.90
2023-03-31T14:21:11.501Z,18.70
2023-03-31T14:23:51.116Z,18.40
2023-03-31T14:26:31.798Z,18.30
2023-03-31T14:29:12.751Z,18.20
2023-03-31T14:31:49.649Z,18.10
2023-03-31T14:34:42.823Z,18.00
2023-03-31T14:37:17.684Z,17.90
2023-03-31T14:39:48.894Z,17.80
2023-03-31T14:42:19.480Z,17.80
2023-03-31T14:44:49.824Z,17.80
2023-03-31T14:47:23.048Z,17.90
2023-03-31T14:50:02.271Z,17.90
2023-03-31T14:52:33.672Z,18.00
2023-03-31T14:55:02.145Z,18.10
2023-03-31T14:57:34.665Z,18.20
2023-03-31T15:00:08.314Z,18.40
2023-03-31T15:02:39.158Z,18.60
2023-03-31T15:05:09.836Z,18.70
2023-03-31T15:07:38.753Z,18.90
2023-03-31T15:10:09.017Z,19.00
2023-03-31T15:12:38.422Z,19.00
2023-03-31T15:15:09.317Z,19.10
2023-03-31T15:17:41.517Z,19.10
2023-03-31T15:20:28.550Z,19.10
2023-03-31T15:22:57.466Z,19.10
2023-03-31T15:25:30.631Z,19.00
2023-03-31T15:28:03.567Z,18.80
2023-03-31T15:30:35.034Z,18.60
2023-03-31T15:35:58.983Z,18.40
2023-03-31T15:38:29.318Z,18.30
2023-03-31T15:40:59.160Z,18.20
2023-03-31T15:43:32.439Z,18.10
2023-03-31T15:46:03.597Z,18.10
2023-03-31T15:48:35.830Z,18.00
2023-03-31T15:51:08.979Z,17.90
2023-03-31T15:53:39.566Z,17.80
2023-03-31T15:56:08.479Z,17.70
2023-03-31T15:58:49.442Z,17.70
2023-03-31T16:01:19.207Z,17.60
2023-03-31T16:03:47.926Z,17.50
2023-03-31T16:06:25.306Z,17.50
2023-03-31T16:08:59.467Z,17.40
2023-03-31T16:11:35.148Z,17.40
2023-03-31T16:14:09.649Z,17.30
2023-03-31T16:16:39.854Z,17.30
2023-03-31T16:19:11.187Z,17.30
2023-03-31T16:21:41.737Z,17.20
2023-03-31T16:24:10.835Z,17.20
2023-03-31T16:26:39.682Z,17.10
2023-03-31T16:29:08.573Z,17.10
2023-03-31T16:31:40.891Z,17.00
2023-03-31T16:34:11.742Z,16.90
2023-03-31T16:36:40.805Z,16.80
2023-03-31T16:39:09.260Z,16.80
2023-03-31T16:41:39.048Z,16.70
2023-03-31T16:44:07.630Z,16.70
2023-03-31T16:46:36.216Z,16.60
2023-03-31T16:49:06.080Z,16.50
2023-03-31T16:51:34.476Z,16.40
2023-03-31T16:54:02.983Z,16.40
2023-03-31T16:56:31.632Z,16.30
2023-03-31T16:58:59.969Z,16.20
2023-03-31T17:01:28.628Z,16.20
2023-03-31T17:03:57.104Z,16.10
2023-03-31T17:06:28.307Z,16.00
2023-03-31T17:08:56.724Z,16.00
2023-03-31T17:11:25.181Z,15.90
2023-03-31T17:13:54.513Z,15.80
2023-03-31T17:16:29.841Z,15.80
2023-03-31T17:19:04.757Z,15.70
2023-03-31T17:21:34.448Z,15.60
2023-03-31T17:24:03.432Z,15.60
2023-03-31T17:26:31.927Z,15.60
2023-03-31T17:29:00.718Z,15.50
2023-03-31T17:31:30.587Z,15.40
2023-03-31T17:33:59.777Z,15.40
2023-03-31T17:36:28.433Z,15.40
2023-03-31T17:39:00.215Z,15.40
2023-03-31T17:41:29.988Z,15.40
2023-03-31T17:43:58.853Z,15.40
2023-03-31T17:46:27.567Z,15.30
2023-03-31T17:48:58.424Z,15.20
2023-03-31T17:51:27.805Z,15.00
2023-03-31T17:53:57.598Z,14.80
2023-03-31T17:56:27.548Z,14.60
2023-03-31T17:58:57.320Z,14.40
2023-03-31T18:01:25.876Z,14.30
2023-03-31T18:03:56.613Z,14.10
2023-03-31T18:06:26.000Z,13.90
2023-03-31T18:08:54.335Z,13.70
2023-03-31T18:11:24.536Z,13.60
2023-03-31T18:13:52.870Z,13.50
2023-03-31T18:16:21.766Z,13.30
2023-03-31T18:18:51.034Z,13.30
2023-03-31T18:21:19.595Z,13.10
2023-03-31T18:23:52.754Z,13.00
2023-03-31T18:26:21.961Z,12.90
2023-03-31T18:28:51.917Z,12.70
2023-03-31T18:31:21.474Z,12.60
2023-03-31T18:33:52.384Z,12.50
2023-03-31T18:36:22.818Z,12.30
2023-03-31T18:38:51.786Z,12.20
2023-03-31T18:41:20.341Z,12.10
2023-03-31T18:43:50.721Z,11.90
2023-03-31T18:46:21.115Z,11.70
2023-03-31T18:48:50.334Z,11.70
2023-03-31T18:51:19.295Z,11.60
2023-03-31T18:53:47.801Z,11.50
2023-03-31T18:56:16.205Z,11.40
2023-03-31T18:58:44.935Z,11.30
2023-03-31T19:01:13.282Z,11.30
2023-03-31T19:03:43.976Z,11.20
2023-03-31T19:06:12.525Z,11.20
2023-03-31T19:08:41.539Z,11.20
2023-03-31T19:11:12.763Z,11.10
2023-03-31T19:13:42.917Z,11.10
2023-03-31T19:16:11.599Z,11.00
2023-03-31T19:18:41.063Z,10.90
2023-03-31T19:21:11.916Z,10.90
2023-03-31T19:23:40.777Z,10.90
2023-03-31T19:26:09.176Z,10.90
2023-03-31T19:28:37.908Z,10.80
2023-03-31T19:31:06.565Z,10.80
2023-03-31T19:33:35.127Z,10.80
2023-03-31T19:36:03.920Z,10.70
2023-03-31T19:38:36.727Z,10.60
2023-03-31T19:41:06.494Z,10.60
2023-03-31T19:43:35.591Z,10.50
2023-03-31T19:46:03.970Z,10.50
2023-03-31T19:48:34.152Z,10.50
2023-03-31T19:51:05.818Z,10.40
2023-03-31T19:53:37.765Z,10.40
2023-03-31T19:56:09.101Z,10.40
2023-03-31T19:58:38.061Z,10.40
2023-03-31T20:01:08.602Z,10.40
2023-03-31T20:03:37.910Z,10.40
2023-03-31T20:06:08.413Z,10.40
2023-03-31T20:08:40.967Z,10.40
2023-03-31T20:11:12.381Z,10.40
2023-03-31T20:13:42.139Z,10.40
2023-03-31T20:16:12.754Z,10.40
2023-03-31T20:18:43.625Z,10.40
2023-03-31T20:21:14.695Z,10.40
2023-03-31T20:23:45.177Z,10.40
2023-03-31T20:26:17.583Z,10.40
2023-03-31T20:28:46.755Z,10.40
2023-03-31T20:31:18.841Z,10.40
2023-03-31T20:33:48.021Z,10.40
2023-03-31T20:36:18.189Z,10.40
2023-03-31T20:38:51.333Z,10.40
2023-03-31T20:41:21.037Z,10.40
2023-03-31T20:43:50.600Z,10.40
2023-03-31T20:46:19.837Z,10.40
2023-03-31T20:48:51.323Z,10.40
2023-03-31T20:51:22.049Z,10.40
2023-03-31T20:53:53.983Z,10.40
2023-03-31T20:56:24.354Z,10.40
2023-03-31T20:58:55.126Z,10.40
2023-03-31T21:01:23.901Z,10.30
2023-03-31T21:03:54.088Z,10.30
2023-03-31T21:06:23.586Z,10.30
2023-03-31T21:08:54.888Z,10.30
2023-03-31T21:11:24.305Z,10.30
2023-03-31T21:13:53.335Z,10.30
2023-03-31T21:16:23.137Z,10.20
2023-03-31T21:18:54.992Z,10.20
2023-03-31T21:21:24.998Z,10.20
2023-03-31T21:23:55.585Z,10.20
2023-03-31T21:26:25.048Z,10.20
2023-03-31T21:28:54.981Z,10.20
2023-03-31T21:31:25.333Z,10.20
2023-03-31T21:33:56.730Z,10.20
2023-03-31T21:36:26.945Z,10.20
2023-03-31T21:38:57.986Z,10.20
2023-03-31T21:41:28.138Z,10.20
2023-03-31T21:44:00.590Z,10.20
2023-03-31T21:46:31.853Z,10.20
2023-03-31T21:49:01.206Z,10.10
2023-03-31T21:51:29.950Z,10.10
2023-03-31T21:53:59.794Z,10.00
2023-03-31T21:56:31.692Z,10.00
2023-03-31T21:59:01.464Z,10.00
2023-03-31T22:01:29.977Z,10.00
2023-03-31T22:03:59.216Z,10.00
2023-03-31T22:06:27.613Z,10.00
2023-03-31T22:08:56.240Z,10.00
2023-03-31T22:11:26.789Z,10.00
2023-03-31T22:13:55.423Z,9.90
2023-03-31T22:16:24.287Z,10.00
2023-03-31T22:18:53.058Z,10.00
2023-03-31T22:21:23.423Z,10.00
2023-03-31T22:23:52.727Z,10.00
2023-03-31T22:26:21.821Z,10.00
2023-03-31T22:28:51.867Z,10.00
2023-03-31T22:31:20.798Z,10.00
2023-03-31T22:33:49.644Z,10.00
2023-03-31T22:36:18.055Z,10.00
2023-03-31T22:38:46.708Z,10.00
2023-03-31T22:41:15.066Z,9.90
2023-03-31T22:43:45.866Z,9.90
2023-03-31T22:46:16.661Z,9.90
2023-03-31T22:48:48.732Z,9.80
2023-03-31T22:51:17.434Z,9.80
2023-03-31T22:53:49.943Z,9.80
2023-03-31T22:56:18.746Z,9.80
2023-03-31T22:58:47.117Z,9.80
2023-03-31T23:01:19.215Z,9.80
2023-03-31T23:03:48.383Z,9.80
2023-03-31T23:06:17.628Z,9.80
2023-03-31T23:08:48.670Z,9.80
2023-03-31T23:11:18.898Z,9.80
2023-03-31T23:13:47.521Z,9.80
2023-03-31T23:16:20.548Z,9.80
2023-03-31T23:18:50.076Z,9.80
2023-03-31T23:21:21.627Z,9.80
2023-03-31T23:23:53.808Z,9.80
2023-03-31T23:26:23.576Z,9.80
2023-03-31T23:28:53.039Z,9.80
2023-03-31T23:31:25.793Z,9.80
2023-03-31T23:33:54.232Z,9.80
2023-03-31T23:36:22.789Z,9.80
2023-03-31T23:38:53.353Z,9.80
2023-03-31T23:41:23.031Z,9.80
2023-03-31T23:43:51.980Z,9.70
2023-03-31T23:46:20.582Z,9.70
2023-03-31T23:48:50.253Z,9.70
2023-03-31T23:51:19.604Z,9.70
2023-03-31T23:53:48.034Z,9.70
2023-03-31T23:56:17.098Z,9.70
2023-03-31T23:58:45.915Z,9.60
